createdAt,value
2023-02-01T00:01:19.452Z,100763.90
2023-02-01T00:03:51.030Z,100770.79
2023-02-01T00:06:22.572Z,100773.63
2023-02-01T00:08:56.358Z,100779.98
2023-02-01T00:11:29.811Z,100778.48
2023-02-01T00:14:01.351Z,100786.38
2023-02-01T00:16:32.924Z,100793.34
2023-02-01T00:19:05.605Z,100796.63
2023-02-01T00:21:37.278Z,100795.48
2023-02-01T00:24:08.964Z,100792.86
2023-02-01T00:26:41.308Z,100791.17
2023-02-01T00:29:14.304Z,100792.86
2023-02-01T00:31:46.095Z,100785.41
2023-02-01T00:34:18.384Z,100783.80
2023-02-01T00:36:49.963Z,100782.52
2023-02-01T00:39:21.300Z,100781.44
2023-02-01T00:41:52.698Z,100780.94
2023-02-01T00:44:24.179Z,100781.70
2023-02-01T00:46:55.724Z,100786.54
2023-02-01T00:49:27.192Z,100785.65
2023-02-01T00:51:58.567Z,100785.39
2023-02-01T00:54:29.784Z,100779.23
2023-02-01T00:57:01.126Z,100779.16
2023-02-01T00:59:32.682Z,100769.63
2023-02-01T01:02:04.275Z,100767.84
2023-02-01T01:04:35.571Z,100767.08
2023-02-01T01:07:06.878Z,100761.61
2023-02-01T01:09:38.459Z,100761.26
2023-02-01T01:12:10.236Z,100763.59
2023-02-01T01:14:41.914Z,100758.83
2023-02-01T01:17:13.228Z,100761.51
2023-02-01T01:19:44.537Z,100762.56
2023-02-01T01:22:16.185Z,100769.46
2023-02-01T01:24:47.662Z,100769.52
2023-02-01T01:27:24.021Z,100767.48
2023-02-01T01:29:55.439Z,100762.56
2023-02-01T01:32:26.903Z,100755.74
2023-02-01T01:34:58.349Z,100754.79
2023-02-01T01:37:29.962Z,100757.61
2023-02-01T01:40:01.534Z,100756.66
2023-02-01T01:42:33.021Z,100752.60
2023-02-01T01:45:05.953Z,100750.59
2023-02-01T01:47:38.211Z,100750.96
2023-02-01T01:50:10.813Z,100753.83
2023-02-01T01:52:42.353Z,100755.90
2023-02-01T01:55:13.712Z,100757.08
2023-02-01T01:57:46.259Z,100756.02
2023-02-01T02:00:18.406Z,100757.42
2023-02-01T02:02:50.615Z,100755.36
2023-02-01T02:05:22.064Z,100753.22
2023-02-01T02:07:53.609Z,100753.67
2023-02-01T02:10:44.994Z,100752.13
2023-02-01T02:13:16.588Z,100753.42
2023-02-01T02:15:51.616Z,100753.68
2023-02-01T02:18:24.909Z,100758.08
2023-02-01T02:20:59.899Z,100754.03
2023-02-01T02:23:42.019Z,100751.33
2023-02-01T02:26:21.172Z,100756.16
2023-02-01T02:29:06.235Z,100755.11
2023-02-01T02:31:45.636Z,100762.30
2023-02-01T02:34:18.664Z,100757.67
2023-02-01T02:36:52.999Z,100757.54
2023-02-01T02:39:26.316Z,100753.06
2023-02-01T02:42:28.934Z,100754.84
2023-02-01T02:45:19.562Z,100757.15
2023-02-01T02:47:53.453Z,100753.33
2023-02-01T02:50:43.388Z,100747.50
2023-02-01T02:53:32.725Z,100753.09
2023-02-01T02:56:22.007Z,100761.67
2023-02-01T02:59:11.212Z,100763.75
2023-02-01T03:02:00.430Z,100762.59
2023-02-01T03:04:31.945Z,100766.30
2023-02-01T03:07:13.847Z,100765.07
2023-02-01T03:09:46.294Z,100764.69
2023-02-01T03:12:35.103Z,100768.65
2023-02-01T03:15:08.283Z,100771.55
2023-02-01T03:17:41.064Z,100769.46
2023-02-01T03:20:14.526Z,100766.89
2023-02-01T03:22:46.056Z,100770.46
2023-02-01T03:25:18.547Z,100771.34
2023-02-01T03:27:51.252Z,100770.15
2023-02-01T03:30:23.731Z,100770.52
2023-02-01T03:33:02.831Z,100770.70
2023-02-01T03:35:35.508Z,100774.83
2023-02-01T03:38:09.973Z,100766.42
2023-02-01T03:40:41.307Z,100764.27
2023-02-01T03:43:13.195Z,100761.45
2023-02-01T03:45:45.826Z,100760.02
2023-02-01T03:48:17.290Z,100757.09
2023-02-01T03:50:48.979Z,100758.01
2023-02-01T03:53:20.698Z,100754.54
2023-02-01T03:55:52.107Z,100753.75
2023-02-01T03:58:24.133Z,100757.71
2023-02-01T04:00:56.629Z,100760.20
2023-02-01T04:03:28.569Z,100756.59
2023-02-01T04:05:59.934Z,100755.98
2023-02-01T04:08:31.264Z,100752.95
2023-02-01T04:11:02.723Z,100748.66
2023-02-01T04:13:34.380Z,100746.37
2023-02-01T04:16:06.133Z,100748.93
2023-02-01T04:18:37.825Z,100754.04
2023-02-01T04:21:09.303Z,100754.88
2023-02-01T04:23:40.915Z,100756.46
2023-02-01T04:26:12.505Z,100754.70
2023-02-01T04:28:44.133Z,100757.41
2023-02-01T04:31:15.633Z,100760.20
2023-02-01T04:33:47.287Z,100758.19
2023-02-01T04:36:20.758Z,100754.12
2023-02-01T04:38:52.457Z,100761.08
2023-02-01T04:41:23.938Z,100765.45
2023-02-01T04:43:55.467Z,100760.44
2023-02-01T04:46:26.770Z,100757.86
2023-02-01T04:48:58.309Z,100764.48
2023-02-01T04:51:30.802Z,100769.15
2023-02-01T04:54:02.340Z,100766.14
2023-02-01T04:56:39.474Z,100769.19
2023-02-01T04:59:12.968Z,100766.91
2023-02-01T05:01:44.393Z,100766.84
2023-02-01T05:04:16.003Z,100765.23
2023-02-01T05:06:47.544Z,100764.84
2023-02-01T05:09:18.738Z,100767.39
2023-02-01T05:12:07.447Z,100766.53
2023-02-01T05:14:38.742Z,100766.17
2023-02-01T05:17:10.221Z,100770.56
2023-02-01T05:19:41.725Z,100772.42
2023-02-01T05:22:13.073Z,100771.13
2023-02-01T05:24:44.305Z,100778.29
2023-02-01T05:27:15.665Z,100777.52
2023-02-01T05:29:47.189Z,100771.77
2023-02-01T05:32:22.569Z,100769.38
2023-02-01T05:34:54.580Z,100763.48
2023-02-01T05:37:26.131Z,100768.77
2023-02-01T05:39:57.684Z,100765.56
2023-02-01T05:42:29.231Z,100757.86
2023-02-01T05:45:00.761Z,100753.69
2023-02-01T05:47:32.159Z,100753.44
2023-02-01T05:50:03.429Z,100749.73
2023-02-01T05:52:34.921Z,100750.92
2023-02-01T05:55:07.192Z,100747.76
2023-02-01T05:57:39.258Z,100745.27
2023-02-01T06:00:12.605Z,100744.30
2023-02-01T06:02:44.087Z,100745.44
2023-02-01T06:05:16.240Z,100750.45
2023-02-01T06:07:48.049Z,100756.17
2023-02-01T06:10:20.773Z,100757.17
2023-02-01T06:12:52.547Z,100767.03
2023-02-01T06:15:24.019Z,100764.52
2023-02-01T06:17:55.810Z,100763.18
2023-02-01T06:20:27.528Z,100768.58
2023-02-01T06:22:59.416Z,100772.86
2023-02-01T06:25:30.888Z,100764.94
2023-02-01T06:28:04.745Z,100767.65
2023-02-01T06:30:36.388Z,100764.23
2023-02-01T06:33:08.384Z,100769.52
2023-02-01T06:35:44.484Z,100777.07
2023-02-01T06:38:16.818Z,100778.17
2023-02-01T06:40:48.407Z,100787.17
2023-02-01T06:43:20.412Z,100794.74
2023-02-01T06:45:52.277Z,100803.08
2023-02-01T06:48:24.335Z,100800.36
2023-02-01T06:50:56.038Z,100797.18
2023-02-01T06:53:27.712Z,100791.27
2023-02-01T06:56:00.238Z,100783.20
2023-02-01T06:58:32.457Z,100784.43
2023-02-01T07:01:08.590Z,100785.70
2023-02-01T07:03:40.243Z,100773.02
2023-02-01T07:06:11.855Z,100772.82
2023-02-01T07:08:43.239Z,100769.17
2023-02-01T07:11:15.411Z,100770.63
2023-02-01T07:13:47.180Z,100777.67
2023-02-01T07:16:19.476Z,100776.73
2023-02-01T07:18:51.855Z,100782.28
2023-02-01T07:21:23.559Z,100782.29
2023-02-01T07:23:55.084Z,100777.97
2023-02-01T07:26:26.575Z,100776.70
2023-02-01T07:28:58.195Z,100769.98
2023-02-01T07:31:30.180Z,100772.91
2023-02-01T07:34:02.056Z,100775.23
2023-02-01T07:36:34.694Z,100779.62
2023-02-01T07:39:06.350Z,100777.89
2023-02-01T07:41:37.751Z,100776.70
2023-02-01T07:44:09.062Z,100772.96
2023-02-01T07:46:41.171Z,100768.84
2023-02-01T07:49:14.988Z,100767.73
2023-02-01T07:51:46.711Z,100771.45
2023-02-01T07:54:18.053Z,100772.23
2023-02-01T07:56:49.408Z,100773.58
2023-02-01T07:59:20.977Z,100773.81
2023-02-01T08:01:52.641Z,100771.28
2023-02-01T08:04:24.173Z,100770.77
2023-02-01T08:06:55.627Z,100773.67
2023-02-01T08:09:27.126Z,100777.45
2023-02-01T08:11:58.664Z,100777.90
2023-02-01T08:14:30.787Z,100777.14
2023-02-01T08:17:02.374Z,100780.95
2023-02-01T08:19:33.891Z,100786.00
2023-02-01T08:22:08.029Z,100782.86
2023-02-01T08:24:41.549Z,100785.13
2023-02-01T08:27:13.880Z,100784.29
2023-02-01T08:29:45.389Z,100781.27
2023-02-01T08:32:16.903Z,100782.67
2023-02-01T08:34:48.084Z,100784.41
2023-02-01T08:37:19.407Z,100779.39
2023-02-01T08:39:51.812Z,100774.50
2023-02-01T08:42:41.063Z,100777.55
2023-02-01T08:45:12.730Z,100772.72
2023-02-01T08:47:44.109Z,100771.20
2023-02-01T08:50:15.782Z,100776.16
2023-02-01T08:52:47.490Z,100781.48
2023-02-01T08:55:18.888Z,100780.86
2023-02-01T08:57:50.139Z,100783.52
2023-02-01T09:00:22.116Z,100792.73
2023-02-01T09:02:53.853Z,100788.84
2023-02-01T09:05:31.040Z,100781.71
2023-02-01T09:08:09.449Z,100775.45
2023-02-01T09:10:41.175Z,100774.58
2023-02-01T09:13:12.990Z,100771.11
2023-02-01T09:15:44.511Z,100774.44
2023-02-01T09:18:16.053Z,100765.40
2023-02-01T09:20:47.470Z,100769.63
2023-02-01T09:23:18.872Z,100764.65
2023-02-01T09:25:51.446Z,100763.11
2023-02-01T09:28:22.734Z,100757.33
2023-02-01T09:30:57.165Z,100755.94
2023-02-01T09:33:29.424Z,100748.67
2023-02-01T09:36:01.492Z,100745.02
2023-02-01T09:38:34.568Z,100744.84
2023-02-01T09:41:09.351Z,100741.25
2023-02-01T09:43:44.134Z,100741.27
2023-02-01T09:46:21.355Z,100737.05
2023-02-01T09:48:54.646Z,100727.51
2023-02-01T09:51:26.435Z,100726.83
2023-02-01T09:54:02.109Z,100722.88
2023-02-01T09:56:36.859Z,100719.77
2023-02-01T09:59:10.844Z,100718.05
2023-02-01T10:01:42.873Z,100720.64
2023-02-01T10:04:14.937Z,100720.21
2023-02-01T10:06:50.709Z,100717.63
2023-02-01T10:09:44.066Z,100717.11
2023-02-01T10:12:24.071Z,100718.29
2023-02-01T10:15:00.835Z,100718.67
2023-02-01T10:17:34.073Z,100708.48
2023-02-01T10:20:08.570Z,100710.40
2023-02-01T10:23:05.283Z,100701.44
2023-02-01T10:25:35.118Z,100701.09
2023-02-01T10:28:06.384Z,100692.08
2023-02-01T10:30:40.142Z,100690.40
2023-02-01T10:33:15.448Z,100690.77
2023-02-01T10:35:46.780Z,100685.52
2023-02-01T10:38:21.440Z,100687.88
2023-02-01T10:40:52.616Z,100685.50
2023-02-01T10:43:23.617Z,100683.58
2023-02-01T10:45:54.813Z,100679.74
2023-02-01T10:48:25.867Z,100677.63
2023-02-01T10:50:57.704Z,100669.96
2023-02-01T10:53:30.804Z,100668.50
2023-02-01T10:56:04.383Z,100662.02
2023-02-01T10:58:37.511Z,100664.80
2023-02-01T11:01:09.204Z,100667.45
2023-02-01T11:03:40.987Z,100664.77
2023-02-01T11:06:23.747Z,100659.67
2023-02-01T11:08:55.024Z,100653.66
2023-02-01T11:11:26.467Z,100647.45
2023-02-01T11:13:58.675Z,100640.59
2023-02-01T11:16:35.819Z,100636.77
2023-02-01T11:19:06.875Z,100640.15
2023-02-01T11:21:39.706Z,100635.36
2023-02-01T11:24:14.028Z,100637.46
2023-02-01T11:26:45.463Z,100637.30
2023-02-01T11:29:18.709Z,100638.90
2023-02-01T11:31:49.824Z,100641.55
2023-02-01T11:34:22.556Z,100637.16
2023-02-01T11:36:54.237Z,100627.03
2023-02-01T11:39:27.527Z,100626.69
2023-02-01T11:42:01.105Z,100622.61
2023-02-01T11:44:36.042Z,100626.73
2023-02-01T11:47:27.124Z,100618.77
2023-02-01T11:50:02.623Z,100621.32
2023-02-01T11:52:43.081Z,100622.63
2023-02-01T11:55:23.863Z,100629.83
2023-02-01T11:58:02.263Z,100628.02
2023-02-01T12:00:37.598Z,100621.35
2023-02-01T12:03:17.463Z,100623.79
2023-02-01T12:05:53.046Z,100620.88
2023-02-01T12:08:28.118Z,100610.04
2023-02-01T12:11:04.248Z,100606.80
2023-02-01T12:13:40.323Z,100600.98
2023-02-01T12:18:37.582Z,100598.95
2023-02-01T12:21:12.813Z,100595.94
2023-02-01T12:23:52.235Z,100595.08
2023-02-01T12:26:38.165Z,100603.00
2023-02-01T12:29:16.233Z,100594.55
2023-02-01T12:31:55.237Z,100588.83
2023-02-01T12:34:30.361Z,100583.79
2023-02-01T12:37:02.523Z,100581.89
2023-02-01T12:39:33.777Z,100583.46
2023-02-01T12:42:06.244Z,100588.31
2023-02-01T12:44:41.936Z,100590.62
2023-02-01T12:47:17.001Z,100590.30
2023-02-01T12:49:53.455Z,100588.65
2023-02-01T12:52:25.986Z,100586.81
2023-02-01T12:54:58.408Z,100587.30
2023-02-01T12:57:30.080Z,100585.78
2023-02-01T13:00:02.095Z,100587.82
2023-02-01T13:02:36.748Z,100589.35
2023-02-01T13:05:14.055Z,100592.07
2023-02-01T13:07:46.231Z,100591.13
2023-02-01T13:10:18.014Z,100590.55
2023-02-01T13:12:50.152Z,100588.75
2023-02-01T13:15:22.188Z,100588.94
2023-02-01T13:17:54.053Z,100590.57
2023-02-01T13:20:26.790Z,100598.23
2023-02-01T13:23:00.243Z,100597.80
2023-02-01T13:25:33.776Z,100599.02
2023-02-01T13:28:05.834Z,100597.86
2023-02-01T13:30:40.033Z,100595.95
2023-02-01T13:33:52.405Z,100599.02
2023-02-01T13:36:25.278Z,100593.05
2023-02-01T13:39:08.066Z,100595.52
2023-02-01T13:41:41.100Z,100593.88
2023-02-01T13:44:15.432Z,100590.06
2023-02-01T13:46:46.875Z,100587.05
2023-02-01T13:49:21.217Z,100589.21
2023-02-01T13:51:53.476Z,100589.38
2023-02-01T13:54:29.081Z,100587.10
2023-02-01T13:57:01.346Z,100588.11
2023-02-01T13:59:53.150Z,100587.36
2023-02-01T14:02:41.140Z,100589.61
2023-02-01T14:05:12.237Z,100589.80
2023-02-01T14:07:53.964Z,100591.63
2023-02-01T14:10:42.218Z,100589.39
2023-02-01T14:13:16.467Z,100586.63
2023-02-01T14:15:52.796Z,100589.82
2023-02-01T14:18:49.502Z,100587.98
2023-02-01T14:21:23.537Z,100587.98
2023-02-01T14:23:58.912Z,100585.53
2023-02-01T14:26:30.318Z,100587.11
2023-02-01T14:29:07.009Z,100584.88
2023-02-01T14:31:52.748Z,100587.09
2023-02-01T14:34:28.937Z,100584.52
2023-02-01T14:37:00.871Z,100581.40
2023-02-01T14:39:37.072Z,100585.77
2023-02-01T14:42:15.730Z,100585.45
2023-02-01T14:44:59.429Z,100588.86
2023-02-01T14:47:34.774Z,100590.52
2023-02-01T14:50:29.860Z,100590.22
2023-02-01T14:53:06.541Z,100588.16
2023-02-01T14:55:38.423Z,100586.38
2023-02-01T14:58:12.753Z,100585.36
2023-02-01T15:00:43.731Z,100586.79
2023-02-01T15:03:24.461Z,100587.86
2023-02-01T15:05:59.570Z,100592.10
2023-02-01T15:08:31.693Z,100587.73
2023-02-01T15:11:02.980Z,100588.59
2023-02-01T15:13:33.909Z,100589.40
2023-02-01T15:16:11.137Z,100591.77
2023-02-01T15:18:42.412Z,100587.21
2023-02-01T15:21:28.597Z,100586.33
2023-02-01T15:24:14.176Z,100587.76
2023-02-01T15:26:45.006Z,100590.35
2023-02-01T15:29:16.457Z,100592.55
2023-02-01T15:31:48.403Z,100589.86
2023-02-01T15:34:19.643Z,100587.92
2023-02-01T15:37:01.995Z,100588.61
2023-02-01T15:39:35.784Z,100591.25
2023-02-01T15:42:16.588Z,100596.48
2023-02-01T15:44:47.871Z,100596.30
2023-02-01T15:47:19.218Z,100594.80
2023-02-01T15:49:52.438Z,100596.86
2023-02-01T15:52:25.282Z,100598.19
2023-02-01T15:54:56.570Z,100602.04
2023-02-01T15:57:31.910Z,100604.89
2023-02-01T16:00:04.420Z,100605.89
2023-02-01T16:02:39.194Z,100606.61
2023-02-01T16:05:27.679Z,100607.21
2023-02-01T16:08:04.707Z,100604.20
2023-02-01T16:10:40.631Z,100606.79
2023-02-01T16:13:11.580Z,100608.78
2023-02-01T16:15:42.640Z,100608.26
2023-02-01T16:18:14.094Z,100610.21
2023-02-01T16:20:46.557Z,100609.88
2023-02-01T16:23:17.460Z,100607.80
2023-02-01T16:25:48.405Z,100610.23
2023-02-01T16:28:19.144Z,100613.23
2023-02-01T16:30:49.944Z,100611.90
2023-02-01T16:33:23.073Z,100612.59
2023-02-01T16:35:56.307Z,100616.89
2023-02-01T16:38:27.641Z,100619.02
2023-02-01T16:41:00.433Z,100622.92
2023-02-01T16:43:31.613Z,100623.41
2023-02-01T16:46:04.701Z,100625.02
2023-02-01T16:48:36.451Z,100625.15
2023-02-01T16:51:10.137Z,100620.28
2023-02-01T16:53:53.626Z,100623.99
2023-02-01T16:56:26.575Z,100618.02
2023-02-01T16:58:57.496Z,100616.77
2023-02-01T17:01:28.388Z,100619.38
2023-02-01T17:03:59.832Z,100623.23
2023-02-01T17:06:30.931Z,100626.55
2023-02-01T17:09:03.364Z,100624.57
2023-02-01T17:11:34.446Z,100626.04
2023-02-01T17:14:10.355Z,100628.95
2023-02-01T17:16:41.154Z,100625.27
2023-02-01T17:19:13.131Z,100618.95
2023-02-01T17:21:45.068Z,100621.34
2023-02-01T17:24:16.501Z,100622.45
2023-02-01T17:26:48.009Z,100618.64
2023-02-01T17:29:19.109Z,100616.05
2023-02-01T17:31:52.022Z,100616.09
2023-02-01T17:34:23.365Z,100616.12
2023-02-01T17:36:54.445Z,100614.65
2023-02-01T17:39:42.940Z,100611.14
2023-02-01T17:45:18.561Z,100605.15
2023-02-01T17:51:48.819Z,100607.54
2023-02-01T17:55:09.378Z,100611.93
2023-02-01T18:00:41.617Z,100609.70
2023-02-01T18:03:16.666Z,100611.99
2023-02-01T18:05:51.188Z,100613.15
2023-02-01T18:08:23.207Z,100616.55
2023-02-01T18:10:54.584Z,100612.27
2023-02-01T18:13:25.537Z,100608.59
2023-02-01T18:15:57.045Z,100604.66
2023-02-01T18:21:39.415Z,100601.31
2023-02-01T18:24:28.484Z,100598.88
2023-02-01T18:27:08.324Z,100599.27
2023-02-01T18:29:47.064Z,100596.93
2023-02-01T18:32:23.058Z,100601.78
2023-02-01T18:34:55.348Z,100603.23
2023-02-01T18:37:29.490Z,100610.54
2023-02-01T18:40:31.679Z,100616.00
2023-02-01T18:43:03.707Z,100614.54
2023-02-01T18:45:37.442Z,100621.58
2023-02-01T18:48:09.122Z,100627.24
2023-02-01T18:50:40.720Z,100633.75
2023-02-01T18:53:14.426Z,100640.63
2023-02-01T18:55:45.518Z,100646.23
2023-02-01T18:58:17.320Z,100652.04
2023-02-01T19:01:00.983Z,100658.13
2023-02-01T19:07:31.875Z,100648.34
2023-02-01T19:10:07.972Z,100654.29
2023-02-01T19:13:35.333Z,100649.20
2023-02-01T19:16:33.566Z,100652.67
2023-02-01T19:19:13.182Z,100652.35
2023-02-01T19:25:00.810Z,100646.84
2023-02-01T19:27:39.175Z,100652.21
2023-02-01T19:30:19.184Z,100642.83
2023-02-01T19:33:12.161Z,100634.92
2023-02-01T19:36:23.503Z,100634.65
2023-02-01T19:39:01.080Z,100633.60
2023-02-01T19:41:32.478Z,100631.16
2023-02-01T19:44:18.190Z,100634.41
2023-02-01T19:46:57.261Z,100637.41
2023-02-01T19:49:53.360Z,100636.77
2023-02-01T19:53:20.307Z,100635.62
2023-02-01T19:55:49.306Z,100633.64
2023-02-01T20:01:29.331Z,100622.27
2023-02-01T20:02:47.551Z,100625.73
2023-02-01T20:04:16.856Z,100619.00
2023-02-01T20:06:51.281Z,100621.16
2023-02-01T20:09:57.508Z,100613.30
2023-02-01T20:12:50.262Z,100614.82
2023-02-01T20:16:54.717Z,100619.85
2023-02-01T20:19:24.401Z,100627.86
2023-02-01T20:22:01.348Z,100625.95
2023-02-01T20:24:36.850Z,100628.02
2023-02-01T20:27:13.386Z,100628.09
2023-02-01T20:29:46.833Z,100628.39
2023-02-01T20:32:19.045Z,100625.59
2023-02-01T20:34:53.616Z,100634.03
2023-02-01T20:37:24.682Z,100631.23
2023-02-01T20:39:55.849Z,100635.01
2023-02-01T20:42:29.971Z,100637.56
2023-02-01T20:45:08.965Z,100631.96
2023-02-01T20:47:57.911Z,100623.92
2023-02-01T20:50:29.203Z,100617.43
2023-02-01T20:54:06.856Z,100617.42
2023-02-01T20:57:25.908Z,100619.93
2023-02-01T20:59:59.643Z,100612.92
2023-02-01T21:09:16.478Z,100616.29
2023-02-01T21:11:50.872Z,100616.84
2023-02-01T21:16:37.934Z,100614.09
2023-02-01T21:18:32.053Z,100606.73
2023-02-01T21:21:32.026Z,100611.56
2023-02-01T21:24:17.762Z,100609.22
2023-02-01T21:26:53.072Z,100607.16
2023-02-01T21:33:07.943Z,100608.17
2023-02-01T21:35:43.106Z,100606.41
2023-02-01T21:38:13.962Z,100598.20
2023-02-01T21:40:44.849Z,100601.20
2023-02-01T21:43:15.705Z,100600.38
2023-02-01T21:45:51.312Z,100597.41
2023-02-01T21:48:25.185Z,100591.34
2023-02-01T21:50:58.959Z,100595.45
2023-02-01T21:53:32.819Z,100595.52
2023-02-01T21:56:06.227Z,100590.45
2023-02-01T21:58:37.890Z,100590.51
2023-02-01T22:01:10.157Z,100587.24
2023-02-01T22:03:44.443Z,100582.76
2023-02-01T22:06:29.958Z,100579.45
2023-02-01T22:09:04.596Z,100576.17
2023-02-01T22:11:40.418Z,100576.38
2023-02-01T22:14:20.044Z,100574.41
2023-02-01T22:16:51.610Z,100574.59
2023-02-01T22:19:23.176Z,100572.48
2023-02-01T22:21:54.501Z,100565.08
2023-02-01T22:24:26.494Z,100563.75
2023-02-01T22:27:14.020Z,100568.16
2023-02-01T22:29:45.697Z,100569.35
2023-02-01T22:32:16.576Z,100570.08
2023-02-01T22:34:47.211Z,100570.38
2023-02-01T22:37:18.069Z,100576.17
2023-02-01T22:39:48.909Z,100570.65
2023-02-01T22:42:19.733Z,100570.20
2023-02-01T22:44:51.383Z,100571.34
2023-02-01T22:47:22.320Z,100568.77
2023-02-01T22:49:53.466Z,100568.09
2023-02-01T22:52:24.300Z,100571.29
2023-02-01T22:54:55.601Z,100567.61
2023-02-01T22:57:26.470Z,100562.64
2023-02-01T22:59:57.366Z,100565.44
2023-02-01T23:02:28.181Z,100567.19
2023-02-01T23:04:59.257Z,100569.61
2023-02-01T23:07:30.556Z,100565.48
2023-02-01T23:10:02.286Z,100560.35
2023-02-01T23:12:33.946Z,100562.98
2023-02-01T23:15:08.034Z,100560.34
2023-02-01T23:17:38.881Z,100559.27
2023-02-01T23:20:14.425Z,100563.63
2023-02-01T23:22:45.629Z,100561.61
2023-02-01T23:25:17.162Z,100562.40
2023-02-01T23:27:48.941Z,100560.47
2023-02-01T23:33:35.329Z,100566.48
2023-02-01T23:36:07.782Z,100568.21
2023-02-01T23:38:38.947Z,100570.76
2023-02-01T23:41:11.457Z,100573.92
2023-02-01T23:44:01.437Z,100568.30
2023-02-01T23:46:33.883Z,100567.03
2023-02-01T23:49:05.595Z,100562.38
2023-02-01T23:51:37.443Z,100566.21
2023-02-01T23:54:08.724Z,100573.75
2023-02-01T23:56:41.310Z,100576.97
2023-02-01T23:59:13.329Z,100581.30
